No particular awareness of the weather is required.    There are no Weather-warnings




My webcam more information My webcam


Meteosat more information Meteosat


Radar de pluja more information rain snow radar


Visita la nostra xarxa de llocs de meteo:

Template documentation
and downloads

And another site



Nearby METAR Reports

   
LERS - Reus
Actualitzacio: 13-11-2018 08:00
Clar  
Clar  
   Vent: varia 3.7 km/h
Vent: varia 3.7 km/h
Temperatura: 10°C
Punt de rosada: 10°C
Humitat: 100%
Barometre: 1023 hPa
Visibilitat: More than 10 km
Cloud details: Clar
LERS 130700Z VRB02KT CAVOK 10/10 Q1023
LEDA - Lleida
Actualitzacio: 13-11-2018 07:00
Clar  
Clar  
   Vent: NNE 5.6 km/h
Vent: NNE 5.6 km/h
Temperatura: 9°C
Termica: 8°C
Punt de rosada: 9°C
Humitat: 100%
Barometre: 1023 hPa
Visibilitat: More than 10 km
Cloud details: Clar
LEDA 130600Z AUTO 03003KT CAVOK 09/09 Q1023
LEGE - Girona
Actualitzacio: 13-11-2018 08:00
Parcialment ennuvolat  
Parcialment ennuvolat  
   Vent: North 9.3 km/h
Vent: North 9.3 km/h
Temperatura: 14°C
Punt de rosada: 14°C
Humitat: 100%
Barometre: 1024 hPa
Nuvols: Parcialment ennuvolat
Visibilitat: More than 10 km
Cloud details: Nuvols dispersos 2300 ft,
Parcialment tapat 2900 ft,
Parcialment ennuvolat 4000 ft
LEGE 130700Z 01005KT 330V040 9999 FEW023 SCT029 BKN040 14/14 Q1024
LEMH - Mahon
Actualitzacio: 13-11-2018 08:00
Boira, Clar  
Boira, Clar  
   Vent: calma
Vent: calma
Temperatura: 15°C
Punt de rosada: 14°C
Humitat: 94%
Barometre: 1022 hPa
Nuvols: Clar
Visibilitat: 0 km
Cloud details: Clar 100 ft
LEMH 130700Z 00000KT 0100 R01/0175N R19/M0050N FG VV001 15/14 Q1022
LFMK - Carcassonne
Actualitzacio: 13-11-2018 08:00
Clar  
Clar  
   Vent: West 11.1 km/h
Vent: West 11.1 km/h
Temperatura: 13°C
Punt de rosada: 11°C
Humitat: 88%
Barometre: 1026 hPa
Nuvols: Clar
Visibilitat: More than 10 km
Cloud details: Clar 1000 ft
LFMK 130700Z AUTO 26006KT 220V290 9999 OVC010 13/11 Q1026 TEMPO DZ
 

Guio original per  Saratoga-weather.org Adaptat per a la plantilla per  Weerstation Leuven

Trobareu la nostra informacio del temps tambe a:

European Weather Network

WeatherCloud

Weather Underground

Meteoclimatic

Equip utilitzat:

Weather-program
Weather Display

Weather-server
RaspberryPI 2

Proveidor

Weather Display

RaspberryPI 2